Time;durP1;ratioP1;P1;durP2;ratioP2;P2;SDS_P1;SDS_P2;PMS_P1;PMS_P2;Temp;Humidity;BMP_temperature;BMP_pressure;BME280_temperature;BME280_humidity;BME280_pressure;Samples;Min_cycle;Max_cycle;Signal;HPM_P1;HPM_P2
2023/01/05 00:01:37;;;;;;;6.70;2.77;;;;;;;10.41;89.96;99995.25;5024564;28;20256;-79
2023/01/05 00:04:05;;;;;;;8.90;2.37;;;;;;;10.53;89.74;100034.06;5023520;28;20205;-79
2023/01/05 00:06:32;;;;;;;7.67;2.40;;;;;;;10.46;89.07;100055.97;5049631;22;20224;-78
2023/01/05 00:08:58;;;;;;;5.47;2.00;;;;;;;10.47;89.63;100079.44;5036674;28;20210;-78
2023/01/05 00:22:30;;;;;;;4.90;1.87;;;;;;;10.29;92.00;100056.38;5024312;28;20218;-80
2023/01/05 00:24:56;;;;;;;4.07;1.63;;;;;;;10.13;93.67;100014.16;5007301;28;20203;-80
2023/01/05 00:27:23;;;;;;;8.23;2.67;;;;;;;10.15;94.45;99981.06;5015561;28;20230;-81
2023/01/05 00:29:50;;;;;;;7.30;2.23;;;;;;;10.11;96.45;99940.31;5018687;28;20230;-80
2023/01/05 00:32:17;;;;;;;7.67;2.43;;;;;;;10.10;96.90;99909.91;5021597;28;20211;-80
2023/01/05 00:34:43;;;;;;;6.00;2.40;;;;;;;10.06;97.85;99900.44;5019298;28;20199;-80
2023/01/05 00:37:09;;;;;;;6.50;2.20;;;;;;;10.06;97.15;99900.44;5019216;28;20231;-82
2023/01/05 00:39:35;;;;;;;8.20;2.50;;;;;;;9.98;97.78;99891.97;5019675;28;20218;-80
2023/01/05 00:42:02;;;;;;;7.40;2.53;;;;;;;9.97;98.30;99885.91;5018960;28;20211;-80
2023/01/05 00:44:28;;;;;;;9.83;3.73;;;;;;;9.69;100.00;99825.78;5019023;28;20277;-78
2023/01/05 00:46:56;;;;;;;4.60;1.70;;;;;;;9.52;100.00;99808.81;5019339;28;20219;-78
2023/01/05 00:49:22;;;;;;;8.73;2.33;;;;;;;9.52;100.00;99806.22;5019090;28;20261;-81
2023/01/05 00:51:49;;;;;;;2.23;1.70;;;;;;;9.40;100.00;99823.91;5018048;28;20207;-80
2023/01/05 00:54:15;;;;;;;3.73;1.70;;;;;;;9.44;100.00;99841.16;5018841;28;20216;-78
2023/01/05 00:56:41;;;;;;;6.50;1.80;;;;;;;9.34;100.00;99830.97;5018360;28;20732;-78
2023/01/05 00:59:08;;;;;;;5.23;1.30;;;;;;;9.38;100.00;99825.69;5018547;28;20210;-79
2023/01/05 01:01:34;;;;;;;4.43;1.50;;;;;;;9.29;100.00;99829.34;5021971;28;20268;-79
2023/01/05 01:04:02;;;;;;;3.43;1.90;;;;;;;9.18;100.00;99826.13;5019028;28;20226;-79
2023/01/05 01:06:28;;;;;;;5.07;1.40;;;;;;;9.18;100.00;99821.81;5018210;28;20701;-80
2023/01/05 01:08:54;;;;;;;5.53;1.43;;;;;;;9.26;100.00;99861.53;5018690;28;20230;-80
2023/01/05 01:11:20;;;;;;;5.83;1.80;;;;;;;9.26;100.00;99869.34;5018242;28;20265;-79
2023/01/05 01:13:47;;;;;;;3.30;1.60;;;;;;;9.31;100.00;99890.91;5018512;28;20625;-79
2023/01/05 01:16:15;;;;;;;6.33;1.70;;;;;;;9.41;99.69;99917.63;5018521;28;20233;-80
2023/01/05 01:18:42;;;;;;;7.57;2.07;;;;;;;9.46;99.16;99952.25;5018640;28;20682;-80
2023/01/05 01:21:10;;;;;;;4.17;1.60;;;;;;;9.47;98.74;99956.56;5017490;28;20211;-78
2023/01/05 01:23:37;;;;;;;4.83;1.60;;;;;;;9.56;97.51;99988.53;5018148;28;20681;-80
2023/01/05 01:26:04;;;;;;;9.10;3.03;;;;;;;9.64;95.91;100021.34;5018907;28;20210;-81
2023/01/05 01:28:31;;;;;;;6.20;2.13;;;;;;;9.67;94.75;100054.28;5018299;28;20223;-80
2023/01/05 01:30:57;;;;;;;6.37;2.13;;;;;;;9.71;95.23;100050.72;5018154;28;20202;-79
2023/01/05 01:33:23;;;;;;;9.13;2.40;;;;;;;9.70;95.67;100049.88;5021007;28;20207;-80
2023/01/05 01:35:50;;;;;;;5.70;1.80;;;;;;;9.74;94.97;100054.13;5018079;28;20269;-79
2023/01/05 01:38:17;;;;;;;12.13;3.23;;;;;;;9.76;94.71;100055.84;5017812;28;20260;-80
2023/01/05 01:40:46;;;;;;;7.20;2.97;;;;;;;9.78;94.98;100075.78;5017305;28;20678;-81
2023/01/05 01:43:13;;;;;;;11.27;2.87;;;;;;;9.78;94.97;100074.91;5018438;28;20211;-80
2023/01/05 01:45:40;;;;;;;11.53;2.90;;;;;;;9.69;95.97;100044.69;5017884;28;20207;-81
2023/01/05 01:48:09;;;;;;;10.60;2.70;;;;;;;9.69;95.59;100044.69;5018222;28;20227;-80
2023/01/05 01:50:40;;;;;;;10.30;2.57;;;;;;;9.75;94.90;100068.00;5018002;28;20203;-79
2023/01/05 01:53:11;;;;;;;9.37;2.53;;;;;;;9.81;94.17;100073.13;5017453;28;20581;-80
2023/01/05 01:55:40;;;;;;;9.30;2.73;;;;;;;9.81;94.06;100087.88;5017371;28;20595;-79
2023/01/05 01:58:10;;;;;;;9.10;2.13;;;;;;;9.86;93.01;100105.13;5017231;28;20237;-79
2023/01/05 02:00:37;;;;;;;12.43;2.73;;;;;;;9.81;92.38;100135.66;5016528;28;20243;-79
2023/01/05 02:03:04;;;;;;;13.13;2.33;;;;;;;9.88;91.13;100146.81;5020927;28;20195;-80
2023/01/05 02:05:33;;;;;;;6.13;2.30;;;;;;;9.88;90.28;100185.91;5017660;28;20265;-80
2023/01/05 02:08:00;;;;;;;8.17;2.07;;;;;;;9.97;90.57;100192.69;5016881;28;20307;-80
2023/01/05 02:10:40;;;;;;;9.23;2.70;;;;;;;9.84;90.92;100181.66;5016939;28;20559;-80
2023/01/05 02:13:23;;;;;;;8.03;2.60;;;;;;;9.78;91.13;100185.25;5016979;28;20225;-80
2023/01/05 02:15:59;;;;;;;9.63;2.40;;;;;;;9.84;90.34;100184.28;5016806;28;20215;-79
2023/01/05 02:18:40;;;;;;;7.23;2.80;;;;;;;9.88;90.38;100183.31;5017034;28;20257;-79
2023/01/05 02:21:25;;;;;;;9.33;2.73;;;;;;;9.89;90.93;100180.69;5016478;28;20237;-79
2023/01/05 02:24:25;;;;;;;9.93;2.77;;;;;;;9.87;91.31;100169.44;5016696;28;20204;-77
2023/01/05 02:27:30;;;;;;;6.20;1.93;;;;;;;9.83;90.76;100152.13;5016816;28;20231;-79
2023/01/05 02:30:28;;;;;;;10.50;2.80;;;;;;;9.89;90.78;100165.03;5016830;28;20196;-79
2023/01/05 02:33:06;;;;;;;7.80;2.13;;;;;;;9.87;90.43;100159.00;5019986;28;20203;-79
2023/01/05 02:35:40;;;;;;;11.47;3.63;;;;;;;9.86;89.62;100183.34;5016489;28;20262;-79
2023/01/05 02:38:13;;;;;;;9.93;3.40;;;;;;;9.85;88.98;100193.78;5016047;28;20326;-81
2023/01/05 02:40:43;;;;;;;9.47;2.20;;;;;;;9.88;88.94;100194.59;5015467;28;20206;-80
2023/01/05 02:43:12;;;;;;;7.53;2.57;;;;;;;9.91;88.32;100207.59;5015782;28;20682;-79
2023/01/05 02:45:39;;;;;;;5.53;2.07;;;;;;;9.98;87.28;100234.38;5016341;28;20207;-80
2023/01/05 02:48:06;;;;;;;5.60;2.30;;;;;;;9.94;88.58;100219.69;5015688;28;20219;-80
2023/01/05 02:50:40;;;;;;;9.10;2.40;;;;;;;9.86;88.53;100217.22;5015470;28;20199;-79
2023/01/05 02:53:13;;;;;;;10.03;3.00;;;;;;;9.89;88.15;100217.19;5014792;28;20253;-81
2023/01/05 02:55:44;;;;;;;9.10;2.77;;;;;;;9.97;88.73;100203.13;5016076;28;20210;-81
2023/01/05 02:58:15;;;;;;;6.47;2.47;;;;;;;9.90;88.43;100210.22;5015649;28;20771;-81
2023/01/05 03:00:46;;;;;;;10.80;2.90;;;;;;;9.92;88.86;100206.69;5015364;28;20207;-78
2023/01/05 03:03:20;;;;;;;5.20;1.73;;;;;;;9.82;90.30;100181.69;5018579;28;20210;-79
2023/01/05 03:05:53;;;;;;;6.97;2.20;;;;;;;9.75;90.92;100156.63;5015960;28;20203;-80
2023/01/05 03:08:22;;;;;;;7.87;2.20;;;;;;;9.72;93.28;100122.81;5015635;28;20239;-79
2023/01/05 03:13:47;;;;;;;13.27;2.90;;;;;;;9.53;97.45;100023.31;5015492;28;20209;-81
2023/01/05 03:16:19;;;;;;;10.73;2.87;;;;;;;9.46;98.26;99985.28;5015872;28;20682;-80
2023/01/05 03:35:33;;;;;;;7.93;3.03;;;;;;;9.20;100.00;99939.81;5015391;28;20648;-79
2023/01/05 03:38:06;;;;;;;7.10;2.73;;;;;;;9.28;100.00;99955.25;5015185;28;20238;-79
2023/01/05 03:40:36;;;;;;;6.77;3.00;;;;;;;9.24;100.00;99962.28;5014747;28;20207;-80
2023/01/05 03:43:04;;;;;;;11.27;3.23;;;;;;;9.25;100.00;99965.72;5015469;28;20747;-80
2023/01/05 03:45:36;;;;;;;10.73;2.73;;;;;;;9.27;99.56;99975.22;5015672;28;20198;-79
2023/01/05 03:48:02;;;;;;;13.33;4.23;;;;;;;9.32;98.80;99996.84;5015571;28;20284;-80
2023/01/05 03:50:30;;;;;;;12.47;2.50;;;;;;;9.36;97.98;100021.06;5014419;28;20207;-80
2023/01/05 03:52:56;;;;;;;9.50;3.37;;;;;;;9.40;97.88;100038.34;5014260;28;20207;-80
2023/01/05 03:55:22;;;;;;;12.10;3.10;;;;;;;9.40;97.80;100037.50;5020695;28;20215;-80
2023/01/05 03:57:49;;;;;;;7.90;2.60;;;;;;;9.36;97.65;100044.50;5029508;28;20650;-80
2023/01/05 04:00:16;;;;;;;8.47;2.97;;;;;;;9.42;97.58;100049.59;5030921;28;20206;-81
2023/01/05 04:02:42;;;;;;;9.10;2.67;;;;;;;9.36;97.57;100060.16;5031521;28;20580;-80
2023/01/05 04:05:09;;;;;;;11.53;2.60;;;;;;;9.38;97.70;100040.13;5034655;28;20203;-80
2023/01/05 04:07:36;;;;;;;6.57;2.77;;;;;;;9.34;97.22;100062.78;5033357;28;20253;-81
2023/01/05 04:10:04;;;;;;;7.67;2.73;;;;;;;9.33;98.18;100066.25;5033999;28;20211;-79
2023/01/05 04:12:30;;;;;;;10.53;2.43;;;;;;;9.17;99.89;100036.19;5032376;28;20237;-80
2023/01/05 04:14:56;;;;;;;9.80;2.97;;;;;;;9.23;99.11;100038.69;5033561;28;20190;-80
2023/01/05 04:17:23;;;;;;;8.67;2.57;;;;;;;9.24;98.10;100043.00;5029614;28;20659;-81
2023/01/05 04:19:49;;;;;;;10.97;2.63;;;;;;;9.33;97.56;100062.78;5031990;28;20268;-79
2023/01/05 04:22:15;;;;;;;12.10;3.37;;;;;;;9.39;96.71;100095.69;5030374;28;20202;-80
2023/01/05 04:24:43;;;;;;;13.97;2.67;;;;;;;9.42;96.23;100100.84;5034227;28;20230;-80
2023/01/05 04:27:09;;;;;;;7.23;2.83;;;;;;;9.36;97.54;100094.00;5032059;28;20777;-81
2023/01/05 04:29:36;;;;;;;8.80;3.77;;;;;;;9.25;98.90;100062.09;5025989;28;20683;-81
2023/01/05 04:32:02;;;;;;;5.80;2.90;;;;;;;9.14;100.00;100031.06;5021531;28;20273;-79
2023/01/05 04:34:28;;;;;;;10.27;3.07;;;;;;;9.10;100.00;100012.03;5018022;28;20206;-81
2023/01/05 04:36:55;;;;;;;17.37;3.20;;;;;;;9.13;100.00;99992.88;5017339;28;20222;-81
2023/01/05 04:39:21;;;;;;;11.03;3.13;;;;;;;9.10;100.00;100001.63;5017844;28;20231;-81
2023/01/05 04:41:49;;;;;;;14.53;2.57;;;;;;;9.18;100.00;100019.69;5017892;28;20592;-79
2023/01/05 04:44:15;;;;;;;11.40;2.70;;;;;;;9.18;99.90;100039.66;5018014;28;20293;-80
2023/01/05 04:46:42;;;;;;;9.70;2.57;;;;;;;9.14;99.54;100046.69;5017557;28;20226;-81
2023/01/05 04:49:09;;;;;;;6.77;1.90;;;;;;;9.22;98.14;100069.97;5017490;28;20203;-80
2023/01/05 04:51:35;;;;;;;8.93;2.30;;;;;;;9.29;96.57;100110.63;5016880;28;20210;-81
2023/01/05 04:54:02;;;;;;;7.20;2.80;;;;;;;9.27;96.36;100117.63;5017553;28;20875;-81
2023/01/05 04:56:28;;;;;;;7.10;2.30;;;;;;;9.30;96.68;100126.22;5017767;28;20211;-80
2023/01/05 04:58:56;;;;;;;4.80;1.97;;;;;;;9.29;95.75;100157.50;5017444;28;20362;-80
2023/01/05 05:01:22;;;;;;;5.73;2.47;;;;;;;9.26;95.63;100145.41;5019720;28;20693;-81
2023/01/05 05:03:48;;;;;;;4.50;2.60;;;;;;;9.27;96.45;100136.69;5017641;28;20207;-80
2023/01/05 05:06:17;;;;;;;4.43;2.10;;;;;;;9.21;96.57;100142.03;5017276;28;20260;-81
2023/01/05 05:08:43;;;;;;;7.00;3.37;;;;;;;9.22;96.97;100146.34;5017698;28;20203;-80
2023/01/05 05:11:10;;;;;;;5.17;2.13;;;;;;;9.27;96.70;100135.84;5017243;28;20744;-80
2023/01/05 05:13:36;;;;;;;6.07;2.03;;;;;;;9.31;96.57;100142.72;5018076;28;20277;-80
2023/01/05 05:16:04;;;;;;;5.80;2.20;;;;;;;9.31;95.38;100163.56;5016248;28;20591;-81
2023/01/05 05:18:31;;;;;;;6.93;2.30;;;;;;;9.28;96.14;100161.03;5016844;28;20289;-80
2023/01/05 05:20:57;;;;;;;8.47;2.10;;;;;;;9.23;97.93;100144.59;5016506;28;20256;-79
2023/01/05 05:23:23;;;;;;;8.40;2.73;;;;;;;9.06;100.00;100087.63;5017107;28;20207;-81
2023/01/05 05:25:50;;;;;;;7.33;2.40;;;;;;;8.81;100.00;100017.78;5017455;28;20207;-81
2023/01/05 05:28:16;;;;;;;9.27;2.83;;;;;;;8.71;100.00;99990.22;5017138;28;20237;-80
2023/01/05 05:30:42;;;;;;;10.87;3.03;;;;;;;8.69;100.00;99971.19;5016971;28;20210;-81
2023/01/05 05:33:10;;;;;;;10.47;2.93;;;;;;;8.72;100.00;99981.53;5019560;28;20207;-81
2023/01/05 05:35:36;;;;;;;7.57;2.83;;;;;;;8.77;100.00;99984.91;5017134;28;20302;-82
2023/01/05 05:38:03;;;;;;;7.13;2.67;;;;;;;8.85;100.00;100003.00;5016885;28;20231;-80
2023/01/05 05:40:29;;;;;;;7.73;3.03;;;;;;;8.80;100.00;99999.59;5018038;28;20210;-81
2023/01/05 05:42:55;;;;;;;13.50;4.23;;;;;;;8.81;100.00;99999.56;5016721;28;20203;-81
2023/01/05 05:45:22;;;;;;;11.50;2.93;;;;;;;8.79;100.00;100000.50;5016865;28;20237;-81
2023/01/05 05:47:48;;;;;;;10.37;2.77;;;;;;;8.89;100.00;100028.06;5016340;28;20226;-80
2023/01/05 05:50:16;;;;;;;6.67;2.50;;;;;;;8.90;100.00;100048.88;5016251;28;20203;-81
2023/01/05 05:52:42;;;;;;;6.27;2.53;;;;;;;8.98;100.00;100092.09;5016276;28;20203;-81
2023/01/05 05:55:09;;;;;;;7.40;2.40;;;;;;;8.97;100.00;100104.25;5016699;28;20610;-80
2023/01/05 05:57:35;;;;;;;10.00;2.57;;;;;;;9.01;100.00;100123.31;5029402;28;20223;-81
2023/01/05 06:00:02;;;;;;;9.03;2.27;;;;;;;8.99;100.00;100145.91;5027707;28;20254;-80
2023/01/05 06:02:28;;;;;;;4.00;1.97;;;;;;;8.97;100.00;100140.72;5031568;28;20210;-80
2023/01/05 06:04:55;;;;;;;7.57;2.47;;;;;;;9.02;100.00;100157.13;5027062;28;20597;-79
2023/01/05 06:07:22;;;;;;;10.77;3.13;;;;;;;9.01;98.75;100173.63;5045309;22;20630;-80
2023/01/05 06:09:49;;;;;;;10.57;2.50;;;;;;;9.09;98.23;100184.75;5055747;28;20237;-79
2023/01/05 06:12:15;;;;;;;8.73;2.20;;;;;;;9.17;98.24;100200.25;5055910;28;20259;-81
2023/01/05 06:14:41;;;;;;;7.67;2.10;;;;;;;9.09;97.97;100204.72;5056486;28;20210;-80
2023/01/05 06:17:08;;;;;;;7.20;2.00;;;;;;;9.10;98.22;100227.31;5055964;28;20235;-81
2023/01/05 06:19:34;;;;;;;4.63;2.10;;;;;;;9.13;97.58;100214.22;5056125;28;20229;-80
2023/01/05 06:22:00;;;;;;;6.37;2.87;;;;;;;9.12;97.81;100238.56;5056070;28;20209;-80
2023/01/05 06:24:28;;;;;;;9.03;2.47;;;;;;;9.09;98.51;100220.34;5056317;28;20228;-80
2023/01/05 06:26:54;;;;;;;7.73;2.20;;;;;;;9.09;99.02;100207.34;5056000;28;20209;-79
2023/01/05 06:29:21;;;;;;;7.03;2.40;;;;;;;9.05;98.96;100209.13;5056158;28;20204;-77
2023/01/05 06:31:47;;;;;;;10.90;3.83;;;;;;;9.12;98.45;100220.31;5056209;28;20740;-79
2023/01/05 06:34:13;;;;;;;6.43;2.60;;;;;;;9.12;98.12;100238.56;5063585;28;20201;-79
2023/01/05 06:36:40;;;;;;;5.57;1.97;;;;;;;9.07;97.79;100238.59;5074007;28;20227;-80
2023/01/05 06:39:06;;;;;;;4.20;2.13;;;;;;;9.06;97.57;100244.72;5075705;28;20305;-80
2023/01/05 06:41:34;;;;;;;6.13;1.93;;;;;;;9.12;96.47;100261.97;5075002;28;20813;-78
2023/01/05 06:44:01;;;;;;;5.33;1.90;;;;;;;9.21;96.03;100284.41;5075188;28;20671;-78
2023/01/05 06:46:27;;;;;;;5.63;2.27;;;;;;;9.10;96.37;100287.19;5074987;28;20205;-79
2023/01/05 06:48:53;;;;;;;5.27;1.93;;;;;;;9.13;96.25;100298.38;5075228;28;20239;-79
2023/01/05 06:51:20;;;;;;;6.87;2.07;;;;;;;9.16;96.29;100289.69;5075242;28;20732;-77
2023/01/05 06:53:47;;;;;;;5.13;1.93;;;;;;;8.99;97.48;100289.09;5073479;28;20209;-78
2023/01/05 06:56:13;;;;;;;9.30;2.50;;;;;;;9.07;98.40;100262.03;5073050;28;20721;-79
2023/01/05 06:58:41;;;;;;;6.30;2.27;;;;;;;9.05;98.10;100262.94;5073032;28;20229;-79
2023/01/05 07:01:07;;;;;;;13.53;2.70;;;;;;;8.93;99.50;100241.41;5072701;28;20243;-78
2023/01/05 07:03:34;;;;;;;11.30;2.90;;;;;;;8.87;100.00;100214.63;5071177;28;20262;-78
2023/01/05 07:06:00;;;;;;;7.80;3.00;;;;;;;8.81;100.00;100197.38;5066077;28;20266;-78
2023/01/05 07:08:26;;;;;;;11.20;4.33;;;;;;;8.81;100.00;100175.69;5073193;28;20240;-80
2023/01/05 07:10:53;;;;;;;13.03;3.37;;;;;;;8.80;100.00;100176.56;5073347;28;20209;-79
2023/01/05 07:13:19;;;;;;;11.40;2.87;;;;;;;8.85;100.00;100193.84;5073133;28;20250;-77
2023/01/05 07:15:47;;;;;;;6.63;2.53;;;;;;;9.01;100.00;100232.66;5072809;28;20267;-79
2023/01/05 07:18:13;;;;;;;8.47;2.30;;;;;;;8.98;99.91;100243.09;5052728;28;20214;-78
2023/01/05 07:20:39;;;;;;;9.40;3.07;;;;;;;9.02;99.86;100255.19;5041254;28;20275;-78
2023/01/05 07:23:06;;;;;;;8.17;3.07;;;;;;;9.00;100.00;100246.53;5038003;28;20244;-78
2023/01/05 07:25:32;;;;;;;3.70;1.87;;;;;;;8.78;100.00;100241.69;5032433;28;20210;-77
2023/01/05 07:27:58;;;;;;;9.50;2.87;;;;;;;8.81;100.00;100222.53;5032782;28;20226;-79
2023/01/05 07:30:25;;;;;;;4.33;1.53;;;;;;;8.86;100.00;100231.13;5032426;28;20202;-77
2023/01/05 07:32:52;;;;;;;9.53;2.20;;;;;;;8.91;100.00;100232.78;5040429;28;20201;-78
2023/01/05 07:35:19;;;;;;;9.27;3.27;;;;;;;8.91;100.00;100237.97;5064342;28;20204;-78
2023/01/05 07:37:45;;;;;;;9.27;2.43;;;;;;;8.90;100.00;100258.81;5052645;28;20221;-78
2023/01/05 07:40:12;;;;;;;4.07;1.40;;;;;;;8.90;99.63;100267.50;5044812;28;20276;-78
2023/01/05 07:42:38;;;;;;;5.53;2.07;;;;;;;8.90;99.60;100280.53;5050380;28;20255;-80
2023/01/05 07:45:06;;;;;;;8.90;2.50;;;;;;;8.93;100.00;100282.22;5057140;28;20263;-82
2023/01/05 07:47:32;;;;;;;5.60;2.10;;;;;;;8.90;100.00;100261.44;5057123;28;20232;-82
2023/01/05 07:50:00;;;;;;;6.07;2.23;;;;;;;8.99;100.00;100274.31;5057023;28;20206;-79
2023/01/05 07:52:31;;;;;;;4.77;1.87;;;;;;;9.08;99.60;100284.59;5056885;28;20213;-82
2023/01/05 07:54:58;;;;;;;3.73;1.60;;;;;;;9.02;98.62;100310.72;5057203;28;20212;-81
2023/01/05 07:57:24;;;;;;;5.47;2.73;;;;;;;9.05;99.00;100308.06;5056610;28;20293;-81
2023/01/05 07:59:50;;;;;;;4.73;3.10;;;;;;;9.05;98.51;100341.06;5056526;28;20224;-81
2023/01/05 08:02:17;;;;;;;3.80;2.10;;;;;;;9.05;98.04;100341.91;5056795;28;20263;-82
2023/01/05 08:04:43;;;;;;;7.13;2.33;;;;;;;9.12;96.69;100374.81;5067261;28;20267;-81
2023/01/05 08:07:11;;;;;;;5.63;2.10;;;;;;;9.16;95.07;100406.88;5073123;28;20205;-81
2023/01/05 08:12:22;;;;;;;5.80;1.90;;;;;;;9.13;95.19;100431.19;5044713;28;20212;-81
2023/01/05 08:14:48;;;;;;;5.17;1.87;;;;;;;9.13;96.42;100418.19;5036483;28;20205;-80
2023/01/05 08:17:15;;;;;;;4.77;2.00;;;;;;;9.04;97.11;100404.41;5041595;28;20271;-80
2023/01/05 08:19:41;;;;;;;6.10;1.93;;;;;;;9.01;98.10;100388.84;5044295;28;20216;-80
2023/01/05 08:22:07;;;;;;;6.03;1.50;;;;;;;9.08;97.96;100387.91;5046517;28;20263;-81
2023/01/05 08:24:35;;;;;;;3.80;1.87;;;;;;;9.11;97.88;100387.84;5045573;28;20252;-80
2023/01/05 08:27:01;;;;;;;5.97;1.97;;;;;;;9.03;98.86;100374.91;5046397;28;20574;-80
2023/01/05 08:29:28;;;;;;;6.97;1.90;;;;;;;9.04;98.82;100362.75;5047177;28;20197;-81
2023/01/05 08:31:54;;;;;;;8.90;1.97;;;;;;;9.02;98.12;100365.41;5047128;28;20665;-81
2023/01/05 08:34:21;;;;;;;6.77;2.17;;;;;;;9.10;97.20;100401.75;5049151;28;20214;-79
2023/01/05 08:36:47;;;;;;;5.67;2.13;;;;;;;9.07;96.95;100410.44;5048229;28;20202;-78
2023/01/05 08:39:14;;;;;;;4.37;2.00;;;;;;;9.05;97.24;100399.19;5044786;28;20232;-81
2023/01/05 08:41:41;;;;;;;8.20;2.53;;;;;;;9.16;97.10;100417.28;5044743;28;20611;-80
2023/01/05 08:44:12;;;;;;;5.17;2.33;;;;;;;9.19;95.53;100440.69;5046347;28;20202;-80
2023/01/05 08:46:38;;;;;;;4.87;1.80;;;;;;;9.18;95.30;100443.28;5046598;28;20201;-80
2023/01/05 08:49:08;;;;;;;3.73;1.87;;;;;;;9.25;94.01;100486.63;5045377;28;20260;-80
2023/01/05 08:51:34;;;;;;;6.33;2.43;;;;;;;9.27;93.36;100513.50;5044421;28;20908;-79
2023/01/05 08:54:01;;;;;;;3.67;1.47;;;;;;;9.37;93.52;100515.09;5044784;28;20198;-80
2023/01/05 08:56:27;;;;;;;7.57;1.53;;;;;;;9.40;93.13;100533.31;5045456;28;20209;-82
2023/01/05 08:58:57;;;;;;;4.97;1.60;;;;;;;9.42;91.94;100555.00;5049760;28;20248;-81
2023/01/05 09:01:24;;;;;;;5.07;1.70;;;;;;;9.45;91.86;100587.97;5055414;28;20743;-79
2023/01/05 09:03:50;;;;;;;6.40;2.07;;;;;;;9.39;92.27;100575.88;5064132;28;20252;-80
2023/01/05 09:06:17;;;;;;;4.40;1.83;;;;;;;9.39;91.97;100594.09;5071579;28;20756;-81
2023/01/05 09:08:45;;;;;;;6.17;1.83;;;;;;;9.47;92.29;100588.81;5076295;28;20789;-81
2023/01/05 09:11:14;;;;;;;6.00;2.83;;;;;;;9.45;92.07;100601.00;5076368;28;20203;-80
2023/01/05 09:13:42;;;;;;;10.70;2.13;;;;;;;9.60;91.56;100616.47;5075718;28;20209;-80
2023/01/05 09:16:18;;;;;;;6.20;2.00;;;;;;;9.60;92.93;100595.59;5076050;28;20201;-80
2023/01/05 09:18:45;;;;;;;5.77;1.57;;;;;;;9.51;93.25;100590.50;5075859;28;20231;-80
2023/01/05 09:21:13;;;;;;;7.00;2.20;;;;;;;9.53;93.03;100588.72;5075806;28;20785;-81
2023/01/05 09:23:39;;;;;;;5.10;1.70;;;;;;;9.56;92.53;100593.91;5076269;28;20209;-82
2023/01/05 09:26:07;;;;;;;4.87;1.47;;;;;;;9.55;92.49;100602.59;5076577;28;20216;-80
2023/01/05 09:28:35;;;;;;;5.37;1.60;;;;;;;9.59;92.31;100601.69;5076282;28;20225;-80
2023/01/05 09:31:06;;;;;;;7.57;2.33;;;;;;;9.55;92.49;100613.03;5075213;28;20236;-81
2023/01/05 09:33:34;;;;;;;7.40;1.63;;;;;;;9.46;91.28;100642.69;5073566;28;20730;-80
2023/01/05 09:36:00;;;;;;;4.47;1.80;;;;;;;9.55;91.52;100652.13;5068836;28;20208;-80
2023/01/05 09:38:27;;;;;;;6.27;1.90;;;;;;;9.41;93.71;100631.44;5075397;28;20297;-80
2023/01/05 09:40:56;;;;;;;3.37;1.30;;;;;;;9.29;96.60;100569.91;5075863;28;20258;-80
2023/01/05 09:43:28;;;;;;;3.47;1.30;;;;;;;9.05;100.00;100481.66;5074882;28;20201;-80
2023/01/05 09:45:56;;;;;;;4.03;1.50;;;;;;;9.05;100.00;100420.03;5075551;28;20209;-80
2023/01/05 09:48:24;;;;;;;10.37;3.70;;;;;;;8.90;100.00;100379.44;5075362;28;20220;-81
2023/01/05 09:50:52;;;;;;;7.13;1.93;;;;;;;8.98;100.00;100365.44;5075210;28;20270;-80
2023/01/05 09:53:25;;;;;;;8.20;2.27;;;;;;;8.90;100.00;100358.63;5075625;28;20205;-79
2023/01/05 09:55:53;;;;;;;11.63;2.43;;;;;;;8.97;100.00;100348.97;5075068;28;20204;-80
2023/01/05 09:58:24;;;;;;;3.53;1.60;;;;;;;8.89;100.00;100351.69;5075121;28;20723;-81
2023/01/05 10:01:04;;;;;;;4.47;1.93;;;;;;;8.91;100.00;100364.69;5075015;28;20232;-80
2023/01/05 10:03:32;;;;;;;4.80;1.30;;;;;;;8.86;100.00;100353.47;5073756;28;20254;-81
2023/01/05 10:06:00;;;;;;;5.80;1.50;;;;;;;8.71;100.00;100351.94;5067388;28;20209;-81
2023/01/05 10:08:32;;;;;;;3.73;1.70;;;;;;;8.70;100.00;100345.88;5075296;28;20784;-81
2023/01/05 10:13:57;;;;;;;4.00;1.80;;;;;;;8.51;100.00;100305.34;5076287;28;20227;-81
2023/01/05 10:16:24;;;;;;;4.33;1.80;;;;;;;8.52;100.00;100322.66;5075775;28;20204;-81
2023/01/05 10:18:50;;;;;;;3.57;1.90;;;;;;;8.49;100.00;100320.13;5075875;28;20282;-81
2023/01/05 10:21:29;;;;;;;4.00;2.30;;;;;;;8.58;100.00;100337.34;5076224;28;20796;-80
2023/01/05 10:24:31;;;;;;;4.77;2.43;;;;;;;8.40;100.00;100352.25;5076061;28;20291;-81
2023/01/05 10:27:16;;;;;;;6.20;3.60;;;;;;;8.48;100.00;100367.81;5038605;28;20613;-80
2023/01/05 10:30:02;;;;;;;9.90;3.00;;;;;;;8.47;100.00;100374.75;5075589;28;20818;-81
2023/01/05 10:32:52;;;;;;;6.83;3.33;;;;;;;8.50;100.00;100392.06;5074239;28;20227;-83
2023/01/05 10:36:04;;;;;;;6.13;2.77;;;;;;;8.54;100.00;100391.16;5049304;28;20220;-82
2023/01/05 10:38:46;;;;;;;6.57;2.57;;;;;;;8.64;100.00;100403.19;5074685;28;20233;-81
2023/01/05 10:41:21;;;;;;;11.00;2.63;;;;;;;8.76;100.00;100407.41;5075028;28;20224;-80
2023/01/05 10:44:05;;;;;;;9.10;2.03;;;;;;;8.82;100.00;100427.25;5074974;28;20203;-80
2023/01/05 10:46:37;;;;;;;7.43;2.60;;;;;;;8.89;100.00;100437.56;5074561;28;20214;-80
2023/01/05 10:49:31;;;;;;;5.93;1.87;;;;;;;8.89;100.00;100455.81;5075148;28;20274;-81
2023/01/05 10:51:59;;;;;;;4.23;1.57;;;;;;;9.02;100.00;100484.28;5068053;28;20270;-80
2023/01/05 10:54:36;;;;;;;3.90;1.60;;;;;;;9.00;100.00;100505.16;5076338;28;20208;-81
2023/01/05 10:57:32;;;;;;;2.50;1.07;;;;;;;8.98;100.00;100509.53;5076477;28;20204;-81
2023/01/05 11:00:01;;;;;;;5.70;1.40;;;;;;;8.99;100.00;100506.03;5076362;28;20584;-81
2023/01/05 11:02:31;;;;;;;4.53;1.43;;;;;;;8.98;100.00;100513.84;5075500;28;20208;-81
2023/01/05 11:05:30;;;;;;;3.63;1.33;;;;;;;9.01;100.00;100519.88;5057541;28;20228;-80
2023/01/05 11:07:59;;;;;;;3.57;1.97;;;;;;;9.13;100.00;100509.31;5054094;28;20233;-80
2023/01/05 11:10:30;;;;;;;4.60;1.80;;;;;;;9.04;100.00;100505.97;5054498;28;20738;-79
2023/01/05 11:13:03;;;;;;;5.20;2.20;;;;;;;9.09;100.00;100517.19;5054101;28;20201;-81
2023/01/05 11:15:32;;;;;;;4.40;2.23;;;;;;;9.15;100.00;100517.97;5053693;28;20936;-81
2023/01/05 11:17:58;;;;;;;4.43;1.63;;;;;;;9.05;100.00;100541.53;5053139;28;20777;-81
2023/01/05 11:20:27;;;;;;;3.10;1.40;;;;;;;9.10;100.00;100555.41;5052954;28;20319;-81
2023/01/05 11:22:54;;;;;;;5.30;1.43;;;;;;;9.09;100.00;100557.09;5053443;28;20210;-81
2023/01/05 11:25:27;;;;;;;1.37;1.10;;;;;;;9.22;100.00;100570.88;5053453;28;20201;-81
2023/01/05 11:28:10;;;;;;;1.93;0.90;;;;;;;9.12;99.47;100611.78;5052869;28;20286;-81
2023/01/05 11:30:38;;;;;;;1.73;0.70;;;;;;;9.17;97.78;100679.44;5053038;28;20214;-80
2023/01/05 11:33:13;;;;;;;3.17;0.87;;;;;;;9.29;99.13;100684.53;5056648;28;20205;-79
2023/01/05 11:35:39;;;;;;;2.90;0.97;;;;;;;9.34;100.00;100645.41;5065029;28;20226;-80
2023/01/05 11:41:11;;;;;;;1.47;0.83;;;;;;;9.38;100.00;100626.25;5069077;28;20232;-80
2023/01/05 11:43:40;;;;;;;2.00;0.93;;;;;;;9.40;100.00;100615.84;5074034;28;20204;-80
2023/01/05 11:46:08;;;;;;;2.53;1.10;;;;;;;9.32;100.00;100593.31;5073837;28;20586;-79
2023/01/05 11:48:35;;;;;;;2.27;1.27;;;;;;;9.33;100.00;100609.81;5073630;28;20227;-79
2023/01/05 11:51:02;;;;;;;2.00;0.90;;;;;;;9.34;100.00;100612.41;5073897;28;20211;-80
2023/01/05 11:53:37;;;;;;;2.33;0.90;;;;;;;9.51;100.00;100616.56;5071544;28;20235;-80
2023/01/05 11:56:14;;;;;;;1.97;1.00;;;;;;;9.36;100.00;100642.81;5069268;28;20212;-80
2023/01/05 11:58:53;;;;;;;2.47;0.97;;;;;;;9.39;100.00;100633.19;5054285;28;20278;-81
2023/01/05 12:01:54;;;;;;;1.27;0.70;;;;;;;9.51;100.00;100634.78;5053764;28;20232;-81
2023/01/05 12:04:50;;;;;;;4.10;1.90;;;;;;;9.50;98.36;100685.19;5053698;28;20201;-81
2023/01/05 12:07:26;;;;;;;3.50;1.00;;;;;;;9.58;97.12;100711.19;5053907;28;20299;-82
2023/01/05 12:10:00;;;;;;;4.03;1.50;;;;;;;9.44;95.55;100755.63;5078402;22;20230;-77
2023/01/05 12:12:40;;;;;;;2.73;1.40;;;;;;;9.28;95.89;100744.47;5013485;28;20203;-81
2023/01/05 12:15:28;;;;;;;1.97;1.20;;;;;;;9.37;96.62;100740.91;5014006;28;20740;-82
2023/01/05 12:18:06;;;;;;;2.80;0.87;;;;;;;9.23;95.96;100730.63;5013539;28;20637;-81
2023/01/05 12:20:54;;;;;;;4.53;1.40;;;;;;;9.21;96.28;100748.00;5013153;28;20230;-81